sensor_id;sensor_type;location;lat;lon;timestamp;pressure;altitude;pressure_sealevel;temperature;humidity
55994;BME280;67425;52.126;20.638;2023-04-06T00:01:17;57489.34;;;-144.78;37.54
55994;BME280;67425;52.126;20.638;2023-04-06T00:03:42;57472.72;;;-144.78;37.04
55994;BME280;67425;52.126;20.638;2023-04-06T00:06:07;57478.97;;;-144.78;37.62
55994;BME280;67425;52.126;20.638;2023-04-06T00:08:33;57468.56;;;-144.78;37.72
55994;BME280;67425;52.126;20.638;2023-04-06T00:10:58;57472.72;;;-144.78;37.58
55994;BME280;67425;52.126;20.638;2023-04-06T00:13:23;57454.03;;;-144.78;37.66
55994;BME280;67425;52.126;20.638;2023-04-06T00:15:49;57462.34;;;-144.78;37.48
55994;BME280;67425;52.126;20.638;2023-04-06T00:18:14;57483.13;;;-144.78;37.21
55994;BME280;67425;52.126;20.638;2023-04-06T00:20:40;57499.72;;;-144.78;36.98
55994;BME280;67425;52.126;20.638;2023-04-06T00:23:05;57472.72;;;-144.78;35.96
55994;BME280;67425;52.126;20.638;2023-04-06T00:25:31;57508.03;;;-144.78;36.34
55994;BME280;67425;52.126;20.638;2023-04-06T00:27:56;57495.56;;;-144.78;35.37
55994;BME280;67425;52.126;20.638;2023-04-06T00:30:22;57478.97;;;-144.78;35.20
55994;BME280;67425;52.126;20.638;2023-04-06T00:32:47;57458.19;;;-144.78;35.03
55994;BME280;67425;52.126;20.638;2023-04-06T00:35:12;57468.56;;;-144.78;34.42
55994;BME280;67425;52.126;20.638;2023-04-06T00:37:38;57427.03;;;-144.78;34.12
55994;BME280;67425;52.126;20.638;2023-04-06T00:40:04;57397.97;;;-144.78;33.88
55994;BME280;67425;52.126;20.638;2023-04-06T00:42:29;57379.28;;;-144.78;34.20
55994;BME280;67425;52.126;20.638;2023-04-06T00:44:57;57385.50;;;-144.78;32.97
55994;BME280;67425;52.126;20.638;2023-04-06T00:47:24;57400.03;;;-144.78;32.90
55994;BME280;67425;52.126;20.638;2023-04-06T00:49:51;57377.19;;;-144.78;33.36
55994;BME280;67425;52.126;20.638;2023-04-06T00:52:17;57406.28;;;-144.78;34.17
55994;BME280;67425;52.126;20.638;2023-04-06T00:54:42;57429.13;;;-144.78;35.15
55994;BME280;67425;52.126;20.638;2023-04-06T00:57:07;57387.59;;;-144.78;34.32
55994;BME280;67425;52.126;20.638;2023-04-06T00:59:33;57427.03;;;-144.78;34.32
55994;BME280;67425;52.126;20.638;2023-04-06T01:01:58;57435.34;;;-144.78;34.02
55994;BME280;67425;52.126;20.638;2023-04-06T01:04:24;57451.97;;;-144.78;34.22
55994;BME280;67425;52.126;20.638;2023-04-06T01:06:49;57410.44;;;-144.78;33.40
55994;BME280;67425;52.126;20.638;2023-04-06T01:09:16;57418.72;;;-144.78;33.26
55994;BME280;67425;52.126;20.638;2023-04-06T01:11:41;57445.72;;;-144.78;33.86
55994;BME280;67425;52.126;20.638;2023-04-06T01:14:06;57424.97;;;-144.78;35.56
55994;BME280;67425;52.126;20.638;2023-04-06T01:16:32;57435.34;;;-144.78;34.68
55994;BME280;67425;52.126;20.638;2023-04-06T01:18:58;57397.97;;;-144.78;34.89
55994;BME280;67425;52.126;20.638;2023-04-06T01:21:23;57439.50;;;-144.78;36.35
55994;BME280;67425;52.126;20.638;2023-04-06T01:23:49;57458.19;;;-144.78;36.00
55994;BME280;67425;52.126;20.638;2023-04-06T01:26:14;57476.88;;;-144.78;35.66
55994;BME280;67425;52.126;20.638;2023-04-06T01:28:40;57451.97;;;-144.78;34.67
55994;BME280;67425;52.126;20.638;2023-04-06T01:31:07;57395.88;;;-144.78;34.02
55994;BME280;67425;52.126;20.638;2023-04-06T01:33:33;57456.13;;;-144.78;35.13
55994;BME280;67425;52.126;20.638;2023-04-06T01:35:58;57416.66;;;-144.78;34.72
55994;BME280;67425;52.126;20.638;2023-04-06T01:38:24;57460.28;;;-144.78;35.05
55994;BME280;67425;52.126;20.638;2023-04-06T01:40:50;57420.81;;;-144.78;34.90
55994;BME280;67425;52.126;20.638;2023-04-06T01:43:16;57416.66;;;-144.78;35.20
55994;BME280;67425;52.126;20.638;2023-04-06T01:45:41;57424.97;;;-144.78;34.08
55994;BME280;67425;52.126;20.638;2023-04-06T01:48:07;57435.34;;;-144.78;33.92
55994;BME280;67425;52.126;20.638;2023-04-06T01:50:32;57416.66;;;-144.78;34.38
55994;BME280;67425;52.126;20.638;2023-04-06T01:52:58;57451.97;;;-144.78;35.02
55994;BME280;67425;52.126;20.638;2023-04-06T01:55:23;57435.34;;;-144.78;33.69
55994;BME280;67425;52.126;20.638;2023-04-06T01:57:49;57424.97;;;-144.78;35.37
55994;BME280;67425;52.126;20.638;2023-04-06T02:00:15;57447.81;;;-144.78;34.61
55994;BME280;67425;52.126;20.638;2023-04-06T02:02:41;57435.34;;;-144.78;34.61
55994;BME280;67425;52.126;20.638;2023-04-06T02:05:07;57414.59;;;-144.78;34.43
55994;BME280;67425;52.126;20.638;2023-04-06T02:07:32;57402.13;;;-144.78;34.45
55994;BME280;67425;52.126;20.638;2023-04-06T02:09:57;57387.59;;;-144.78;33.91
55994;BME280;67425;52.126;20.638;2023-04-06T02:12:23;57429.13;;;-144.78;35.46
55994;BME280;67425;52.126;20.638;2023-04-06T02:14:48;57449.88;;;-144.78;34.73
55994;BME280;67425;52.126;20.638;2023-04-06T02:17:14;57478.97;;;-144.78;35.74
55994;BME280;67425;52.126;20.638;2023-04-06T02:19:40;57489.34;;;-144.78;36.66
55994;BME280;67425;52.126;20.638;2023-04-06T02:22:05;57501.81;;;-144.78;35.91
55994;BME280;67425;52.126;20.638;2023-04-06T02:24:31;57470.66;;;-144.78;35.02
55994;BME280;67425;52.126;20.638;2023-04-06T02:26:56;57474.81;;;-144.78;34.90
55994;BME280;67425;52.126;20.638;2023-04-06T02:29:22;57437.44;;;-144.78;34.23
55994;BME280;67425;52.126;20.638;2023-04-06T02:31:47;57443.66;;;-144.78;34.33
55994;BME280;67425;52.126;20.638;2023-04-06T02:34:12;57472.72;;;-144.78;34.53
55994;BME280;67425;52.126;20.638;2023-04-06T02:36:44;57451.97;;;-144.78;34.74
55994;BME280;67425;52.126;20.638;2023-04-06T02:39:09;57476.88;;;-144.78;34.72
55994;BME280;67425;52.126;20.638;2023-04-06T02:41:35;57458.19;;;-144.78;35.20
55994;BME280;67425;52.126;20.638;2023-04-06T02:44:00;57495.56;;;-144.78;35.34
55994;BME280;67425;52.126;20.638;2023-04-06T02:46:26;57481.03;;;-144.78;34.86
55994;BME280;67425;52.126;20.638;2023-04-06T02:48:51;57476.88;;;-144.78;35.78
55994;BME280;67425;52.126;20.638;2023-04-06T02:51:16;57462.34;;;-144.78;35.29
55994;BME280;67425;52.126;20.638;2023-04-06T02:53:42;57454.03;;;-144.78;35.26
55994;BME280;67425;52.126;20.638;2023-04-06T02:56:07;57451.97;;;-144.78;35.95
55994;BME280;67425;52.126;20.638;2023-04-06T02:58:32;57489.34;;;-144.78;36.64
55994;BME280;67425;52.126;20.638;2023-04-06T03:00:58;57478.97;;;-144.78;36.22
55994;BME280;67425;52.126;20.638;2023-04-06T03:03:23;57481.03;;;-144.78;36.80
55994;BME280;67425;52.126;20.638;2023-04-06T03:05:48;57481.03;;;-144.78;35.95
55994;BME280;67425;52.126;20.638;2023-04-06T03:08:14;57462.34;;;-144.78;35.26
55994;BME280;67425;52.126;20.638;2023-04-06T03:10:40;57489.34;;;-144.78;36.31
55994;BME280;67425;52.126;20.638;2023-04-06T03:13:05;57464.41;;;-144.78;35.31
55994;BME280;67425;52.126;20.638;2023-04-06T03:15:31;57447.81;;;-144.78;34.95
55994;BME280;67425;52.126;20.638;2023-04-06T03:17:57;57451.97;;;-144.78;34.94
55994;BME280;67425;52.126;20.638;2023-04-06T03:20:22;57424.97;;;-144.78;34.71
55994;BME280;67425;52.126;20.638;2023-04-06T03:22:48;57458.19;;;-144.78;35.40
55994;BME280;67425;52.126;20.638;2023-04-06T03:25:13;57474.81;;;-144.78;35.18
55994;BME280;67425;52.126;20.638;2023-04-06T03:27:38;57474.81;;;-144.78;35.62
55994;BME280;67425;52.126;20.638;2023-04-06T03:30:04;57449.88;;;-144.78;35.39
55994;BME280;67425;52.126;20.638;2023-04-06T03:32:30;57501.81;;;-144.78;36.90
55994;BME280;67425;52.126;20.638;2023-04-06T03:34:55;57466.50;;;-144.78;36.41
55994;BME280;67425;52.126;20.638;2023-04-06T03:37:21;57495.56;;;-144.78;36.69
55994;BME280;67425;52.126;20.638;2023-04-06T03:39:46;57510.13;;;-144.78;37.68
55994;BME280;67425;52.126;20.638;2023-04-06T03:42:11;57483.13;;;-144.78;36.92
55994;BME280;67425;52.126;20.638;2023-04-06T03:44:37;57524.66;;;-144.78;38.36
55994;BME280;67425;52.126;20.638;2023-04-06T03:47:02;57487.28;;;-144.78;37.35
55994;BME280;67425;52.126;20.638;2023-04-06T03:49:27;57508.03;;;-144.78;38.01
55994;BME280;67425;52.126;20.638;2023-04-06T03:51:53;57485.19;;;-144.78;37.38
55994;BME280;67425;52.126;20.638;2023-04-06T03:54:18;57501.81;;;-144.78;38.40
55994;BME280;67425;52.126;20.638;2023-04-06T03:56:44;57470.66;;;-144.78;37.65
55994;BME280;67425;52.126;20.638;2023-04-06T03:59:09;57476.88;;;-144.78;37.31
55994;BME280;67425;52.126;20.638;2023-04-06T04:01:34;57520.50;;;-144.78;39.02
55994;BME280;67425;52.126;20.638;2023-04-06T04:04:00;57516.34;;;-144.78;39.10
55994;BME280;67425;52.126;20.638;2023-04-06T04:06:25;57491.41;;;-144.78;38.82
55994;BME280;67425;52.126;20.638;2023-04-06T04:08:51;57478.97;;;-144.78;38.17
55994;BME280;67425;52.126;20.638;2023-04-06T04:11:16;57508.03;;;-144.78;38.96
55994;BME280;67425;52.126;20.638;2023-04-06T04:13:41;57503.88;;;-144.78;39.03
55994;BME280;67425;52.126;20.638;2023-04-06T04:16:07;57518.41;;;-144.78;39.78
55994;BME280;67425;52.126;20.638;2023-04-06T04:18:32;57505.97;;;-144.78;39.17
55994;BME280;67425;52.126;20.638;2023-04-06T04:20:57;57495.56;;;-144.78;39.61
55994;BME280;67425;52.126;20.638;2023-04-06T04:23:23;57522.56;;;-144.78;39.74
55994;BME280;67425;52.126;20.638;2023-04-06T04:25:48;57472.72;;;-144.78;38.52
55994;BME280;67425;52.126;20.638;2023-04-06T04:28:13;57501.81;;;-144.78;38.62
55994;BME280;67425;52.126;20.638;2023-04-06T04:30:39;57478.97;;;-144.78;38.91
55994;BME280;67425;52.126;20.638;2023-04-06T04:33:04;57468.56;;;-144.78;37.92
55994;BME280;67425;52.126;20.638;2023-04-06T04:35:29;57514.25;;;-144.78;39.46
55994;BME280;67425;52.126;20.638;2023-04-06T04:37:56;57518.41;;;-144.78;39.98
55994;BME280;67425;52.126;20.638;2023-04-06T04:40:21;57491.41;;;-144.78;38.78
55994;BME280;67425;52.126;20.638;2023-04-06T04:42:46;57487.28;;;-144.78;39.49
55994;BME280;67425;52.126;20.638;2023-04-06T04:45:12;57493.50;;;-144.78;39.80
55994;BME280;67425;52.126;20.638;2023-04-06T04:47:37;57508.03;;;-144.78;40.10
55994;BME280;67425;52.126;20.638;2023-04-06T04:50:03;57491.41;;;-144.78;38.51
55994;BME280;67425;52.126;20.638;2023-04-06T04:52:29;57518.41;;;-144.78;39.28
55994;BME280;67425;52.126;20.638;2023-04-06T04:54:54;57512.19;;;-144.78;39.98
55994;BME280;67425;52.126;20.638;2023-04-06T04:57:19;57520.50;;;-144.78;39.19
55994;BME280;67425;52.126;20.638;2023-04-06T04:59:44;57516.34;;;-144.78;40.42
55994;BME280;67425;52.126;20.638;2023-04-06T05:02:10;57508.03;;;-144.78;39.87
55994;BME280;67425;52.126;20.638;2023-04-06T05:04:36;57493.50;;;-144.78;40.44
55994;BME280;67425;52.126;20.638;2023-04-06T05:07:05;57512.19;;;-144.78;40.28
55994;BME280;67425;52.126;20.638;2023-04-06T05:09:31;57522.56;;;-144.78;40.77
55994;BME280;67425;52.126;20.638;2023-04-06T05:11:57;57518.41;;;-144.78;40.57
55994;BME280;67425;52.126;20.638;2023-04-06T05:14:23;57510.13;;;-144.78;41.11
55994;BME280;67425;52.126;20.638;2023-04-06T05:16:48;57499.72;;;-144.78;40.77
55994;BME280;67425;52.126;20.638;2023-04-06T05:19:14;57528.81;;;-144.78;40.53
55994;BME280;67425;52.126;20.638;2023-04-06T05:21:39;57539.19;;;-144.78;41.89
55994;BME280;67425;52.126;20.638;2023-04-06T05:24:05;57508.03;;;-144.78;41.29
55994;BME280;67425;52.126;20.638;2023-04-06T05:26:31;57487.28;;;-144.78;40.39
55994;BME280;67425;52.126;20.638;2023-04-06T05:28:56;57503.88;;;-144.78;40.55
55994;BME280;67425;52.126;20.638;2023-04-06T05:31:21;57501.81;;;-144.78;41.05
55994;BME280;67425;52.126;20.638;2023-04-06T05:33:47;57464.41;;;-144.78;39.89
55994;BME280;67425;52.126;20.638;2023-04-06T05:36:12;57508.03;;;-144.78;40.98
55994;BME280;67425;52.126;20.638;2023-04-06T05:38:37;57520.50;;;-144.78;41.90
55994;BME280;67425;52.126;20.638;2023-04-06T05:41:03;57512.19;;;-144.78;40.54
55994;BME280;67425;52.126;20.638;2023-04-06T05:43:28;57472.72;;;-144.78;39.89
55994;BME280;67425;52.126;20.638;2023-04-06T05:45:54;57462.34;;;-144.78;38.89
55994;BME280;67425;52.126;20.638;2023-04-06T05:48:19;57464.41;;;-144.78;38.76
55994;BME280;67425;52.126;20.638;2023-04-06T05:50:48;57526.72;;;-144.78;41.33
55994;BME280;67425;52.126;20.638;2023-04-06T05:53:14;57489.34;;;-144.78;40.83
55994;BME280;67425;52.126;20.638;2023-04-06T05:55:40;57495.56;;;-144.78;40.63
55994;BME280;67425;52.126;20.638;2023-04-06T05:58:06;57487.28;;;-144.78;41.47
55994;BME280;67425;52.126;20.638;2023-04-06T06:00:31;57485.19;;;-144.78;41.31
55994;BME280;67425;52.126;20.638;2023-04-06T06:02:57;57503.88;;;-144.78;40.97
55994;BME280;67425;52.126;20.638;2023-04-06T06:05:22;57524.66;;;-144.78;42.64
55994;BME280;67425;52.126;20.638;2023-04-06T06:07:47;57570.34;;;-144.78;42.11
55994;BME280;67425;52.126;20.638;2023-04-06T06:10:13;57555.81;;;-144.78;42.92
55994;BME280;67425;52.126;20.638;2023-04-06T06:12:38;57551.66;;;-144.78;42.99
55994;BME280;67425;52.126;20.638;2023-04-06T06:15:04;57551.66;;;-144.78;42.67
55994;BME280;67425;52.126;20.638;2023-04-06T06:17:30;57526.72;;;-144.78;42.71
55994;BME280;67425;52.126;20.638;2023-04-06T06:19:55;57526.72;;;-144.78;42.15
55994;BME280;67425;52.126;20.638;2023-04-06T06:22:21;57543.34;;;-144.78;42.18
55994;BME280;67425;52.126;20.638;2023-04-06T06:24:46;57547.50;;;-144.78;42.63
55994;BME280;67425;52.126;20.638;2023-04-06T06:27:11;57522.56;;;-144.78;42.95
55994;BME280;67425;52.126;20.638;2023-04-06T06:29:37;57520.50;;;-144.78;42.40
55994;BME280;67425;52.126;20.638;2023-04-06T06:32:02;57541.25;;;-144.78;43.28
55994;BME280;67425;52.126;20.638;2023-04-06T06:34:27;57528.81;;;-144.78;43.07
55994;BME280;67425;52.126;20.638;2023-04-06T06:36:53;57522.56;;;-144.78;41.76
55994;BME280;67425;52.126;20.638;2023-04-06T06:39:20;57491.41;;;-144.78;41.34
55994;BME280;67425;52.126;20.638;2023-04-06T06:41:45;57505.97;;;-144.78;42.34
55994;BME280;67425;52.126;20.638;2023-04-06T06:44:11;57524.66;;;-144.78;41.90
55994;BME280;67425;52.126;20.638;2023-04-06T06:46:36;57532.97;;;-144.78;42.89
55994;BME280;67425;52.126;20.638;2023-04-06T06:49:01;57514.25;;;-144.78;41.88
55994;BME280;67425;52.126;20.638;2023-04-06T06:51:28;57516.34;;;-144.78;41.42
55994;BME280;67425;52.126;20.638;2023-04-06T06:53:53;57468.56;;;-144.78;40.50
55994;BME280;67425;52.126;20.638;2023-04-06T06:56:18;57497.66;;;-144.78;41.23
55994;BME280;67425;52.126;20.638;2023-04-06T06:58:44;57510.13;;;-144.78;40.57
55994;BME280;67425;52.126;20.638;2023-04-06T07:01:10;57487.28;;;-144.78;40.38
55994;BME280;67425;52.126;20.638;2023-04-06T07:03:35;57468.56;;;-144.78;39.06
55994;BME280;67425;52.126;20.638;2023-04-06T07:06:00;57514.25;;;-144.78;40.00
55994;BME280;67425;52.126;20.638;2023-04-06T07:08:26;57505.97;;;-144.78;40.73
55994;BME280;67425;52.126;20.638;2023-04-06T07:10:52;57493.50;;;-144.78;40.38
55994;BME280;67425;52.126;20.638;2023-04-06T07:13:18;57510.13;;;-144.78;39.88
55994;BME280;67425;52.126;20.638;2023-04-06T07:15:48;57528.81;;;-144.78;39.80
55994;BME280;67425;52.126;20.638;2023-04-06T07:18:13;57503.88;;;-144.78;39.19
55994;BME280;67425;52.126;20.638;2023-04-06T07:20:39;57481.03;;;-144.78;38.56
55994;BME280;67425;52.126;20.638;2023-04-06T07:23:04;57499.72;;;-144.78;38.35
55994;BME280;67425;52.126;20.638;2023-04-06T07:25:30;57478.97;;;-144.78;37.87
55994;BME280;67425;52.126;20.638;2023-04-06T07:27:56;57489.34;;;-144.78;38.64
55994;BME280;67425;52.126;20.638;2023-04-06T07:30:22;57485.19;;;-144.78;39.12
55994;BME280;67425;52.126;20.638;2023-04-06T07:32:48;57491.41;;;-144.78;39.02
55994;BME280;67425;52.126;20.638;2023-04-06T07:35:14;57472.72;;;-144.78;37.71
55994;BME280;67425;52.126;20.638;2023-04-06T07:37:39;57468.56;;;-144.78;37.37
55994;BME280;67425;52.126;20.638;2023-04-06T07:40:05;57443.66;;;-144.78;36.63
55994;BME280;67425;52.126;20.638;2023-04-06T07:42:31;57439.50;;;-144.78;36.73
55994;BME280;67425;52.126;20.638;2023-04-06T07:44:58;57445.72;;;-144.78;37.16
55994;BME280;67425;52.126;20.638;2023-04-06T07:47:23;57427.03;;;-144.78;36.46
55994;BME280;67425;52.126;20.638;2023-04-06T07:49:48;57451.97;;;-144.78;36.45
55994;BME280;67425;52.126;20.638;2023-04-06T07:52:14;57441.59;;;-144.78;37.03
55994;BME280;67425;52.126;20.638;2023-04-06T07:54:40;57485.19;;;-144.78;38.09
55994;BME280;67425;52.126;20.638;2023-04-06T07:57:06;57474.81;;;-144.78;37.57
55994;BME280;67425;52.126;20.638;2023-04-06T07:59:32;57520.50;;;-144.78;39.33
55994;BME280;67425;52.126;20.638;2023-04-06T08:01:57;57489.34;;;-144.78;38.25
55994;BME280;67425;52.126;20.638;2023-04-06T08:04:23;57485.19;;;-144.78;37.53
55994;BME280;67425;52.126;20.638;2023-04-06T08:06:48;57481.03;;;-144.78;38.68
55994;BME280;67425;52.126;20.638;2023-04-06T08:09:13;57472.72;;;-144.78;38.44
55994;BME280;67425;52.126;20.638;2023-04-06T08:11:39;57460.28;;;-144.78;38.22
55994;BME280;67425;52.126;20.638;2023-04-06T08:14:04;57489.34;;;-144.78;37.91
55994;BME280;67425;52.126;20.638;2023-04-06T08:16:29;57470.66;;;-144.78;38.32
55994;BME280;67425;52.126;20.638;2023-04-06T08:18:55;57460.28;;;-144.78;37.49
55994;BME280;67425;52.126;20.638;2023-04-06T08:21:20;57424.97;;;-144.78;36.42
55994;BME280;67425;52.126;20.638;2023-04-06T08:23:46;57489.34;;;-144.78;38.21
55994;BME280;67425;52.126;20.638;2023-04-06T08:26:11;57468.56;;;-144.78;38.55
55994;BME280;67425;52.126;20.638;2023-04-06T08:28:37;57483.13;;;-144.78;38.27
55994;BME280;67425;52.126;20.638;2023-04-06T08:31:06;57485.19;;;-144.78;38.55
55994;BME280;67425;52.126;20.638;2023-04-06T08:33:32;57481.03;;;-144.78;38.08
55994;BME280;67425;52.126;20.638;2023-04-06T08:36:07;57443.66;;;-144.78;37.63
55994;BME280;67425;52.126;20.638;2023-04-06T08:38:32;57414.59;;;-144.78;37.13
55994;BME280;67425;52.126;20.638;2023-04-06T08:40:58;57474.81;;;-144.78;38.44
55994;BME280;67425;52.126;20.638;2023-04-06T08:43:24;57427.03;;;-144.78;38.18
55994;BME280;67425;52.126;20.638;2023-04-06T08:45:51;57468.56;;;-144.78;38.73
55994;BME280;67425;52.126;20.638;2023-04-06T08:48:17;57458.19;;;-144.78;39.23
55994;BME280;67425;52.126;20.638;2023-04-06T08:50:43;57447.81;;;-144.78;39.19
55994;BME280;67425;52.126;20.638;2023-04-06T08:53:10;57485.19;;;-144.78;41.00
55994;BME280;67425;52.126;20.638;2023-04-06T08:55:36;57431.19;;;-144.78;40.07
55994;BME280;67425;52.126;20.638;2023-04-06T08:58:04;57458.19;;;-144.78;39.69
55994;BME280;67425;52.126;20.638;2023-04-06T09:00:31;57447.81;;;-144.78;39.37
55994;BME280;67425;52.126;20.638;2023-04-06T09:02:57;57427.03;;;-144.78;39.49
55994;BME280;67425;52.126;20.638;2023-04-06T09:05:25;57441.59;;;-144.78;38.79
55994;BME280;67425;52.126;20.638;2023-04-06T09:07:51;57462.34;;;-144.78;38.85
55994;BME280;67425;52.126;20.638;2023-04-06T09:10:16;57460.28;;;-144.78;39.85
55994;BME280;67425;52.126;20.638;2023-04-06T09:12:42;57433.28;;;-144.78;39.87
55994;BME280;67425;52.126;20.638;2023-04-06T09:15:18;57447.81;;;-144.78;40.23
55994;BME280;67425;52.126;20.638;2023-04-06T09:17:43;57526.72;;;-144.78;41.75
55994;BME280;67425;52.126;20.638;2023-04-06T09:20:09;57487.28;;;-144.78;42.26
55994;BME280;67425;52.126;20.638;2023-04-06T09:22:36;57485.19;;;-144.78;42.36
55994;BME280;67425;52.126;20.638;2023-04-06T09:25:02;57495.56;;;-144.78;42.54
55994;BME280;67425;52.126;20.638;2023-04-06T09:27:35;57514.25;;;-144.78;43.29
55994;BME280;67425;52.126;20.638;2023-04-06T09:30:09;57514.25;;;-144.78;42.66
55994;BME280;67425;52.126;20.638;2023-04-06T09:32:49;57456.13;;;-144.78;41.79
55994;BME280;67425;52.126;20.638;2023-04-06T09:35:15;57449.88;;;-144.78;41.83
55994;BME280;67425;52.126;20.638;2023-04-06T09:37:42;57460.28;;;-144.78;42.56
55994;BME280;67425;52.126;20.638;2023-04-06T09:40:08;57487.28;;;-144.78;43.50
55994;BME280;67425;52.126;20.638;2023-04-06T09:42:35;57510.13;;;-144.78;43.52
55994;BME280;67425;52.126;20.638;2023-04-06T09:45:03;57505.97;;;-144.78;43.73
55994;BME280;67425;52.126;20.638;2023-04-06T09:47:30;57491.41;;;-144.78;44.53
55994;BME280;67425;52.126;20.638;2023-04-06T09:49:59;57460.28;;;-144.78;43.10
55994;BME280;67425;52.126;20.638;2023-04-06T09:52:27;57495.56;;;-144.78;44.34
55994;BME280;67425;52.126;20.638;2023-04-06T09:54:59;57456.13;;;-144.78;43.41
55994;BME280;67425;52.126;20.638;2023-04-06T09:57:32;57468.56;;;-144.78;43.03
55994;BME280;67425;52.126;20.638;2023-04-06T10:00:05;57491.41;;;-144.78;43.37
55994;BME280;67425;52.126;20.638;2023-04-06T10:08:22;57468.56;;;-144.78;43.70
55994;BME280;67425;52.126;20.638;2023-04-06T10:10:50;57495.56;;;-144.78;44.91
55994;BME280;67425;52.126;20.638;2023-04-06T10:13:16;57439.50;;;-144.78;44.43
55994;BME280;67425;52.126;20.638;2023-04-06T10:15:42;57472.72;;;-144.78;45.78
55994;BME280;67425;52.126;20.638;2023-04-06T10:18:08;57497.66;;;-144.78;46.54
55994;BME280;67425;52.126;20.638;2023-04-06T10:20:50;57487.28;;;-144.78;46.71
55994;BME280;67425;52.126;20.638;2023-04-06T10:23:26;57456.13;;;-144.78;45.90
55994;BME280;67425;52.126;20.638;2023-04-06T10:25:56;57487.28;;;-144.78;47.03
55994;BME280;67425;52.126;20.638;2023-04-06T10:28:22;57522.56;;;-144.78;48.38
55994;BME280;67425;52.126;20.638;2023-04-06T10:30:48;57491.41;;;-144.78;48.37
55994;BME280;67425;52.126;20.638;2023-04-06T10:33:18;57458.19;;;-144.78;47.09
55994;BME280;67425;52.126;20.638;2023-04-06T10:35:44;57487.28;;;-144.78;49.12
55994;BME280;67425;52.126;20.638;2023-04-06T10:38:10;57518.41;;;-144.78;51.89
55994;BME280;67425;52.126;20.638;2023-04-06T10:40:39;57508.03;;;-144.78;52.02
55994;BME280;67425;52.126;20.638;2023-04-06T10:45:33;57535.03;;;-144.78;53.82
55994;BME280;67425;52.126;20.638;2023-04-06T10:47:59;57516.34;;;-144.78;51.96
55994;BME280;67425;52.126;20.638;2023-04-06T10:50:24;57508.03;;;-144.78;52.67
55994;BME280;67425;52.126;20.638;2023-04-06T10:53:00;57514.25;;;-144.78;52.81
55994;BME280;67425;52.126;20.638;2023-04-06T10:55:27;57472.72;;;-144.78;50.85
55994;BME280;67425;52.126;20.638;2023-04-06T10:57:53;57518.41;;;-144.78;53.20
55994;BME280;67425;52.126;20.638;2023-04-06T11:00:19;57518.41;;;-144.78;52.84
55994;BME280;67425;52.126;20.638;2023-04-06T11:02:45;57520.50;;;-144.78;52.83
55994;BME280;67425;52.126;20.638;2023-04-06T11:05:11;57501.81;;;-144.78;53.73
55994;BME280;67425;52.126;20.638;2023-04-06T11:07:39;57532.97;;;-144.78;54.82
55994;BME280;67425;52.126;20.638;2023-04-06T11:10:06;57526.72;;;-144.78;54.42
55994;BME280;67425;52.126;20.638;2023-04-06T11:12:31;57501.81;;;-144.78;53.68
55994;BME280;67425;52.126;20.638;2023-04-06T11:14:58;57493.50;;;-144.78;53.50
55994;BME280;67425;52.126;20.638;2023-04-06T11:17:30;57505.97;;;-144.78;54.14
55994;BME280;67425;52.126;20.638;2023-04-06T11:19:56;57495.56;;;-144.78;53.13
55994;BME280;67425;52.126;20.638;2023-04-06T11:22:22;57518.41;;;-144.78;54.88
55994;BME280;67425;52.126;20.638;2023-04-06T11:24:47;57516.34;;;-144.78;55.02
55994;BME280;67425;52.126;20.638;2023-04-06T11:27:14;57481.03;;;-144.78;53.42
55994;BME280;67425;52.126;20.638;2023-04-06T11:29:41;57510.13;;;-144.78;54.49
55994;BME280;67425;52.126;20.638;2023-04-06T11:32:07;57489.34;;;-144.78;54.27
55994;BME280;67425;52.126;20.638;2023-04-06T11:34:37;57491.41;;;-144.78;53.10
55994;BME280;67425;52.126;20.638;2023-04-06T11:37:12;57497.66;;;-144.78;53.73
55994;BME280;67425;52.126;20.638;2023-04-06T11:39:39;57499.72;;;-144.78;53.96
55994;BME280;67425;52.126;20.638;2023-04-06T11:42:06;57476.88;;;-144.78;53.12
55994;BME280;67425;52.126;20.638;2023-04-06T11:44:35;57481.03;;;-144.78;51.32
55994;BME280;67425;52.126;20.638;2023-04-06T11:47:05;57451.97;;;-144.78;51.70
55994;BME280;67425;52.126;20.638;2023-04-06T11:49:32;57524.66;;;-144.78;55.72
55994;BME280;67425;52.126;20.638;2023-04-06T11:52:00;57512.19;;;-144.78;55.18
55994;BME280;67425;52.126;20.638;2023-04-06T11:54:36;57553.72;;;-144.78;56.76
55994;BME280;67425;52.126;20.638;2023-04-06T11:57:03;57478.97;;;-144.78;53.19
55994;BME280;67425;52.126;20.638;2023-04-06T11:59:29;57474.81;;;-144.78;53.02
55994;BME280;67425;52.126;20.638;2023-04-06T12:01:56;57497.66;;;-144.78;52.99
55994;BME280;67425;52.126;20.638;2023-04-06T12:04:21;57487.28;;;-144.78;52.94
55994;BME280;67425;52.126;20.638;2023-04-06T12:06:48;57499.72;;;-144.78;54.75
55994;BME280;67425;52.126;20.638;2023-04-06T12:09:13;57505.97;;;-144.78;54.71
55994;BME280;67425;52.126;20.638;2023-04-06T12:11:39;57514.25;;;-144.78;54.29
55994;BME280;67425;52.126;20.638;2023-04-06T12:14:05;57510.13;;;-144.78;54.51
55994;BME280;67425;52.126;20.638;2023-04-06T12:16:32;57478.97;;;-144.78;55.01
55994;BME280;67425;52.126;20.638;2023-04-06T12:18:58;57476.88;;;-144.78;53.14
55994;BME280;67425;52.126;20.638;2023-04-06T12:21:23;57485.19;;;-144.78;53.61
55994;BME280;67425;52.126;20.638;2023-04-06T12:23:48;57487.28;;;-144.78;53.18
55994;BME280;67425;52.126;20.638;2023-04-06T12:26:14;57497.66;;;-144.78;53.33
55994;BME280;67425;52.126;20.638;2023-04-06T12:28:39;57485.19;;;-144.78;53.16
55994;BME280;67425;52.126;20.638;2023-04-06T12:31:05;57476.88;;;-144.78;53.12
55994;BME280;67425;52.126;20.638;2023-04-06T12:33:30;57474.81;;;-144.78;52.47